createdAt,value
2017-04-12T00:01:19.958Z,7.37
2017-04-12T00:02:23.087Z,7.72
2017-04-12T00:03:26.947Z,7.35
2017-04-12T00:04:30.487Z,9.57
2017-04-12T00:05:30.687Z,8.45
2017-04-12T00:06:31.250Z,6.70
2017-04-12T00:07:31.497Z,7.60
2017-04-12T00:08:32.149Z,8.05
2017-04-12T00:09:36.681Z,6.97
2017-04-12T00:11:53.950Z,7.53
2017-04-12T00:12:54.364Z,6.27
2017-04-12T00:13:56.596Z,7.57
2017-04-12T00:14:57.281Z,6.22
2017-04-12T00:16:05.096Z,6.73
2017-04-12T00:17:05.336Z,6.80
2017-04-12T00:18:06.445Z,6.42
2017-04-12T00:19:06.708Z,6.97
2017-04-12T00:20:07.439Z,6.30
2017-04-12T00:21:10.531Z,6.62
2017-04-12T00:22:10.614Z,6.72
2017-04-12T00:23:11.441Z,6.67
2017-04-12T00:24:11.561Z,6.37
2017-04-12T00:25:13.157Z,7.22
2017-04-12T00:26:13.198Z,7.05
2017-04-12T00:27:14.713Z,7.12
2017-04-12T00:28:14.652Z,6.68
2017-04-12T00:29:14.621Z,7.52
2017-04-12T00:30:14.862Z,6.62
2017-04-12T00:31:14.978Z,8.57
2017-04-12T00:32:17.265Z,7.03
2017-04-12T00:33:18.416Z,7.58
2017-04-12T00:34:18.397Z,8.40
2017-04-12T00:35:19.667Z,6.83
2017-04-12T00:36:19.756Z,8.13
2017-04-12T00:37:20.236Z,6.82
2017-04-12T00:38:20.356Z,7.78
2017-04-12T00:39:20.270Z,7.42
2017-04-12T00:40:20.933Z,7.13
2017-04-12T00:41:21.266Z,6.48
2017-04-12T00:42:22.334Z,7.83
2017-04-12T00:43:23.330Z,5.97
2017-04-12T00:44:23.456Z,6.62
2017-04-12T00:45:24.324Z,8.47
2017-04-12T00:46:24.367Z,6.50
2017-04-12T00:47:24.381Z,6.10
2017-04-12T00:48:24.407Z,6.05
2017-04-12T00:49:24.392Z,6.98
2017-04-12T00:50:24.566Z,6.07
2017-04-12T00:51:24.884Z,6.47
2017-04-12T00:52:25.633Z,7.30
2017-04-12T00:53:25.777Z,7.75
2017-04-12T00:54:27.049Z,9.40
2017-04-12T00:55:28.067Z,7.28
2017-04-12T00:56:28.143Z,8.68
2017-04-12T00:57:28.127Z,8.55
2017-04-12T00:58:28.331Z,6.92
2017-04-12T00:59:28.575Z,8.60
2017-04-12T01:00:30.982Z,6.80
2017-04-12T01:01:31.726Z,8.45
2017-04-12T01:02:31.707Z,7.67
2017-04-12T01:03:31.785Z,7.63
2017-04-12T01:04:32.530Z,8.43
2017-04-12T01:05:33.210Z,7.07
2017-04-12T01:06:33.372Z,7.78
2017-04-12T01:07:34.400Z,7.25
2017-04-12T01:08:35.090Z,9.38
2017-04-12T01:09:35.785Z,8.22
2017-04-12T01:10:35.835Z,7.90
2017-04-12T01:11:35.889Z,8.13
2017-04-12T01:12:37.428Z,7.67
2017-04-12T01:13:38.202Z,7.30
2017-04-12T01:14:40.708Z,7.65
2017-04-12T01:15:40.794Z,7.13
2017-04-12T01:16:41.113Z,7.92
2017-04-12T01:17:41.219Z,5.63
2017-04-12T01:18:49.311Z,8.32
2017-04-12T01:19:51.096Z,6.38
2017-04-12T01:20:51.243Z,6.95
2017-04-12T01:21:51.287Z,5.82
2017-04-12T01:22:51.218Z,7.17
2017-04-12T01:23:52.151Z,6.67
2017-04-12T01:24:52.228Z,7.58
2017-04-12T01:25:52.169Z,7.05
2017-04-12T01:26:52.192Z,5.73
2017-04-12T01:27:52.124Z,6.68
2017-04-12T01:28:53.564Z,5.80
2017-04-12T01:29:54.285Z,6.90
2017-04-12T01:30:54.315Z,7.10
2017-04-12T01:31:54.331Z,6.78
2017-04-12T01:32:54.230Z,6.95
2017-04-12T01:33:55.090Z,6.88
2017-04-12T01:34:55.124Z,5.82
2017-04-12T01:35:55.119Z,6.43
2017-04-12T01:36:55.213Z,7.10
2017-04-12T01:37:56.202Z,6.42
2017-04-12T01:38:56.133Z,7.10
2017-04-12T01:39:56.101Z,6.45
2017-04-12T01:40:56.769Z,6.28
2017-04-12T01:41:56.823Z,5.78
2017-04-12T01:42:56.750Z,6.43
2017-04-12T01:43:57.509Z,6.80
2017-04-12T01:44:57.536Z,6.83
2017-04-12T01:45:58.395Z,6.75
2017-04-12T01:46:58.373Z,6.00
2017-04-12T01:47:59.999Z,7.17
2017-04-12T01:48:59.919Z,7.67
2017-04-12T01:49:59.794Z,7.33
2017-04-12T01:51:00.195Z,6.87
2017-04-12T01:52:00.229Z,7.15
2017-04-12T01:53:00.123Z,6.73
2017-04-12T01:54:00.001Z,6.95
2017-04-12T01:54:59.865Z,7.30
2017-04-12T01:56:00.697Z,6.10
2017-04-12T01:57:00.709Z,6.85
2017-04-12T01:58:00.652Z,6.12
2017-04-12T01:59:00.591Z,5.80
2017-04-12T02:00:00.526Z,6.37
2017-04-12T02:01:00.562Z,5.98
2017-04-12T02:02:00.556Z,6.65
2017-04-12T02:03:02.229Z,7.07
2017-04-12T02:04:03.035Z,6.77
2017-04-12T02:05:03.014Z,5.63
2017-04-12T02:06:03.056Z,6.97
2017-04-12T02:07:03.180Z,8.57
2017-04-12T02:08:03.916Z,7.23
2017-04-12T02:09:04.049Z,7.48
2017-04-12T02:10:04.119Z,6.93
2017-04-12T02:11:04.100Z,8.23
2017-04-12T02:12:03.984Z,6.92
2017-04-12T02:13:04.109Z,6.87
2017-04-12T02:14:04.113Z,8.13
2017-04-12T02:15:04.068Z,7.55
2017-04-12T02:16:04.925Z,6.50
2017-04-12T02:17:04.920Z,6.48
2017-04-12T02:18:05.620Z,6.82
2017-04-12T02:19:05.630Z,6.82
2017-04-12T02:20:05.673Z,6.68
2017-04-12T02:21:06.734Z,7.38
2017-04-12T02:22:06.813Z,7.07
2017-04-12T02:23:06.798Z,8.13
2017-04-12T02:24:06.898Z,7.28
2017-04-12T02:25:06.795Z,7.87
2017-04-12T02:26:08.430Z,6.32
2017-04-12T02:27:08.423Z,7.70
2017-04-12T02:28:08.368Z,7.35
2017-04-12T02:29:08.297Z,6.05
2017-04-12T02:30:08.440Z,6.58
2017-04-12T02:31:08.800Z,7.02
2017-04-12T02:32:09.496Z,6.88
2017-04-12T02:33:09.467Z,7.02
2017-04-12T02:34:09.445Z,7.02
2017-04-12T02:35:10.737Z,8.07
2017-04-12T02:36:10.677Z,7.25
2017-04-12T02:37:11.091Z,7.15
2017-04-12T02:38:11.135Z,6.48
2017-04-12T02:39:11.138Z,8.95
2017-04-12T02:40:11.639Z,7.03
2017-04-12T02:41:12.262Z,7.38
2017-04-12T02:42:13.846Z,6.45
2017-04-12T02:43:13.816Z,6.72
2017-04-12T02:44:13.752Z,6.55
2017-04-12T02:45:13.697Z,7.00
2017-04-12T02:46:13.618Z,6.88
2017-04-12T02:47:13.873Z,5.62
2017-04-12T02:48:13.845Z,6.30
2017-04-12T02:49:15.577Z,7.57
2017-04-12T02:50:15.626Z,7.27
2017-04-12T02:51:16.267Z,6.30
2017-04-12T02:52:16.233Z,6.48
2017-04-12T02:53:16.184Z,7.28
2017-04-12T02:54:16.985Z,9.53
2017-04-12T02:55:16.894Z,6.87
2017-04-12T02:56:17.045Z,5.02
2017-04-12T02:57:17.031Z,5.17
2017-04-12T02:58:17.009Z,5.98
2017-04-12T02:59:17.153Z,6.83
2017-04-12T03:00:18.041Z,6.20
2017-04-12T03:01:18.012Z,5.15
2017-04-12T03:02:18.052Z,5.17
2017-04-12T03:03:17.968Z,6.25
2017-04-12T03:04:17.947Z,4.93
2017-04-12T03:05:17.912Z,5.73
2017-04-12T03:06:17.804Z,5.23
2017-04-12T03:07:17.855Z,5.48
2017-04-12T03:08:19.005Z,5.37
2017-04-12T03:09:18.948Z,4.83
2017-04-12T03:10:21.000Z,4.75
2017-04-12T03:11:21.589Z,4.95
2017-04-12T03:12:23.139Z,5.48
2017-04-12T03:13:27.135Z,5.28
2017-04-12T03:14:27.788Z,5.95
2017-04-12T03:15:27.794Z,7.07
2017-04-12T03:16:27.725Z,6.10
2017-04-12T03:17:27.722Z,5.40
2017-04-12T03:18:27.835Z,6.25
2017-04-12T03:19:27.720Z,5.67
2017-04-12T03:20:27.648Z,5.75
2017-04-12T03:21:27.600Z,5.45
2017-04-12T03:22:28.945Z,5.50
2017-04-12T03:23:29.056Z,5.60
2017-04-12T03:24:29.195Z,5.28
2017-04-12T03:25:29.818Z,5.50
2017-04-12T03:26:29.802Z,5.85
2017-04-12T03:27:29.758Z,5.80
2017-04-12T03:28:29.675Z,7.90
2017-04-12T03:29:29.695Z,5.60
2017-04-12T03:30:29.663Z,6.15
2017-04-12T03:31:29.718Z,6.23
2017-04-12T03:32:30.433Z,5.80
2017-04-12T03:33:30.377Z,6.65
2017-04-12T03:34:30.302Z,7.85
2017-04-12T03:35:30.219Z,6.95
2017-04-12T03:36:30.088Z,7.77
2017-04-12T03:37:30.048Z,7.92
2017-04-12T03:38:29.913Z,6.93
2017-04-12T03:39:29.774Z,6.15
2017-04-12T03:40:29.577Z,6.38
2017-04-12T03:41:29.411Z,7.02
2017-04-12T03:42:29.266Z,5.83
2017-04-12T03:43:29.111Z,7.38
2017-04-12T03:44:29.033Z,6.03
2017-04-12T03:45:28.898Z,6.47
2017-04-12T03:46:28.726Z,6.15
2017-04-12T03:47:28.541Z,6.38
2017-04-12T03:48:28.316Z,6.92
2017-04-12T03:49:28.194Z,7.03
2017-04-12T03:50:28.062Z,6.88
2017-04-12T03:51:27.852Z,7.45
2017-04-12T03:52:27.678Z,6.08
2017-04-12T03:53:27.529Z,6.30
2017-04-12T03:54:27.437Z,6.08
2017-04-12T03:55:27.230Z,6.52
2017-04-12T03:56:27.194Z,6.35
2017-04-12T03:57:27.048Z,6.47
2017-04-12T03:58:26.915Z,7.60
2017-04-12T03:59:26.734Z,7.53
2017-04-12T04:00:26.520Z,6.53
2017-04-12T04:01:26.355Z,6.88
2017-04-12T04:02:26.271Z,7.13
2017-04-12T04:03:26.067Z,6.80
2017-04-12T04:04:25.929Z,7.35
2017-04-12T04:05:25.742Z,7.00
2017-04-12T04:06:25.561Z,7.05
2017-04-12T04:07:25.363Z,6.40
2017-04-12T04:08:25.207Z,6.58
2017-04-12T04:09:25.024Z,6.77
2017-04-12T04:10:24.932Z,6.37
2017-04-12T04:11:24.944Z,7.22
2017-04-12T04:12:24.853Z,8.95
2017-04-12T04:13:24.697Z,6.87
2017-04-12T04:14:24.610Z,6.53
2017-04-12T04:15:24.478Z,6.92
2017-04-12T04:16:24.296Z,6.70
2017-04-12T04:17:24.150Z,7.07
2017-04-12T04:18:23.937Z,7.53
2017-04-12T04:19:23.768Z,7.15
2017-04-12T04:20:23.590Z,7.03
2017-04-12T04:21:23.433Z,6.98
2017-04-12T04:22:23.204Z,6.98
2017-04-12T04:23:22.999Z,6.12
2017-04-12T04:24:22.864Z,8.22
2017-04-12T04:25:22.757Z,8.07
2017-04-12T04:26:23.342Z,6.85
2017-04-12T04:27:23.693Z,7.77
2017-04-12T04:28:23.484Z,7.82
2017-04-12T04:29:23.354Z,7.50
2017-04-12T04:30:23.200Z,7.15
2017-04-12T04:31:23.006Z,6.52
2017-04-12T04:32:22.856Z,8.35
2017-04-12T04:33:22.744Z,9.57
2017-04-12T04:34:22.529Z,7.83
2017-04-12T04:35:22.316Z,8.20
2017-04-12T04:36:22.210Z,8.37
2017-04-12T04:37:22.838Z,7.50
2017-04-12T04:38:22.716Z,7.98
2017-04-12T04:39:25.355Z,7.55
2017-04-12T04:40:25.240Z,7.12
2017-04-12T04:41:25.087Z,8.15
2017-04-12T04:42:24.897Z,7.52
2017-04-12T04:43:24.823Z,7.20
2017-04-12T04:44:24.635Z,9.25
2017-04-12T04:45:24.490Z,8.52
2017-04-12T04:46:24.323Z,8.48
2017-04-12T04:47:24.140Z,7.75
2017-04-12T04:48:24.479Z,8.32
2017-04-12T04:49:24.304Z,8.55
2017-04-12T04:50:24.112Z,8.50
2017-04-12T04:51:24.829Z,9.08
2017-04-12T04:52:24.718Z,8.98
2017-04-12T04:53:24.602Z,9.97
2017-04-12T04:54:24.490Z,10.63
2017-04-12T04:55:24.364Z,8.77
2017-04-12T04:56:24.271Z,10.15
2017-04-12T04:57:24.097Z,8.83
2017-04-12T04:58:24.062Z,9.17
2017-04-12T04:59:23.902Z,10.00
2017-04-12T05:00:23.752Z,8.78
2017-04-12T05:01:23.559Z,11.35
2017-04-12T05:02:23.388Z,10.63
2017-04-12T05:03:23.299Z,9.70
2017-04-12T05:04:23.510Z,10.17
2017-04-12T05:05:23.343Z,10.72
2017-04-12T05:06:23.223Z,10.53
2017-04-12T05:07:23.024Z,10.62
2017-04-12T05:08:22.889Z,10.15
2017-04-12T05:09:22.833Z,11.52
2017-04-12T05:10:22.698Z,9.90
2017-04-12T05:11:23.330Z,9.33
2017-04-12T05:12:23.225Z,10.53
2017-04-12T05:13:23.052Z,12.62
2017-04-12T05:14:22.903Z,10.95
2017-04-12T05:15:22.720Z,10.80
2017-04-12T05:16:22.555Z,10.57
2017-04-12T05:17:22.339Z,11.67
2017-04-12T05:18:22.151Z,10.70
2017-04-12T05:19:22.010Z,11.40
2017-04-12T05:20:21.914Z,11.18
2017-04-12T05:21:21.798Z,11.28
2017-04-12T05:22:21.654Z,12.48
2017-04-12T05:23:22.478Z,11.08
2017-04-12T05:24:22.337Z,13.10
2017-04-12T05:25:22.186Z,13.37
2017-04-12T05:26:22.066Z,12.97
2017-04-12T05:27:21.918Z,12.55
2017-04-12T05:28:21.839Z,12.50
2017-04-12T05:29:21.668Z,12.72
2017-04-12T05:30:22.642Z,12.45
2017-04-12T05:31:22.513Z,13.72
2017-04-12T05:32:22.822Z,12.53
2017-04-12T05:33:22.681Z,11.68
2017-04-12T05:34:22.550Z,11.83
2017-04-12T05:35:22.639Z,13.67
2017-04-12T05:36:22.953Z,11.45
2017-04-12T05:37:22.905Z,12.15
2017-04-12T05:38:22.756Z,12.97
2017-04-12T05:39:23.155Z,13.62
2017-04-12T05:40:22.999Z,13.13
2017-04-12T05:41:22.896Z,12.83
2017-04-12T05:42:22.767Z,13.07
2017-04-12T05:43:22.644Z,13.68
2017-04-12T05:44:22.499Z,13.85
2017-04-12T05:45:22.383Z,13.23
2017-04-12T05:46:22.210Z,14.25
2017-04-12T05:47:22.228Z,14.27
2017-04-12T05:48:22.026Z,13.38
2017-04-12T05:49:21.876Z,13.62
2017-04-12T05:50:21.719Z,14.08
2017-04-12T05:51:21.508Z,12.45
2017-04-12T05:52:21.447Z,13.10
2017-04-12T05:53:21.263Z,15.15
2017-04-12T05:54:21.104Z,15.27
2017-04-12T05:55:20.961Z,14.45
2017-04-12T05:56:20.843Z,15.50
2017-04-12T05:57:20.648Z,14.75
2017-04-12T05:58:20.587Z,15.00
2017-04-12T05:59:20.605Z,13.35
2017-04-12T06:00:22.063Z,14.52
2017-04-12T06:01:21.996Z,14.47
2017-04-12T06:02:21.883Z,14.92
2017-04-12T06:03:21.917Z,14.95
2017-04-12T06:04:21.773Z,14.12
2017-04-12T06:05:21.680Z,13.62
2017-04-12T06:06:21.701Z,15.18
2017-04-12T06:07:21.581Z,13.18
2017-04-12T06:08:21.632Z,13.90
2017-04-12T06:09:21.512Z,12.68
2017-04-12T06:10:21.958Z,14.72
2017-04-12T06:11:22.067Z,13.35
2017-04-12T06:12:21.873Z,12.92
2017-04-12T06:13:22.334Z,12.75
2017-04-12T06:14:22.197Z,14.63
2017-04-12T06:15:22.853Z,13.20
2017-04-12T06:16:22.748Z,12.82
2017-04-12T06:17:22.589Z,13.00
2017-04-12T06:18:23.389Z,14.25
2017-04-12T06:19:23.902Z,14.07
2017-04-12T06:20:23.800Z,12.67
2017-04-12T06:21:24.464Z,14.12
2017-04-12T06:22:24.697Z,14.18
2017-04-12T06:23:24.686Z,14.12
2017-04-12T06:24:24.578Z,15.23
2017-04-12T06:25:24.421Z,14.77
2017-04-12T06:26:24.521Z,15.38
2017-04-12T06:27:24.419Z,16.15
2017-04-12T06:28:25.404Z,16.38
2017-04-12T06:29:25.283Z,16.32
2017-04-12T06:30:25.205Z,13.77
2017-04-12T06:31:25.131Z,14.15
2017-04-12T06:32:24.969Z,15.88
2017-04-12T06:33:24.859Z,14.10
2017-04-12T06:34:24.786Z,13.02
2017-04-12T06:35:24.647Z,15.73
2017-04-12T06:36:24.525Z,16.80
2017-04-12T06:37:24.408Z,15.52
2017-04-12T06:38:24.364Z,15.18
2017-04-12T06:39:24.303Z,13.98
2017-04-12T06:40:24.169Z,14.85
2017-04-12T06:41:24.046Z,14.57
2017-04-12T06:42:23.913Z,13.77
2017-04-12T06:43:24.511Z,15.13
2017-04-12T06:44:24.478Z,14.97
2017-04-12T06:45:25.319Z,15.02
2017-04-12T06:46:25.269Z,14.97
2017-04-12T06:47:25.799Z,14.58
2017-04-12T06:48:25.615Z,15.12
2017-04-12T06:49:25.569Z,15.65
2017-04-12T06:50:25.385Z,13.68
2017-04-12T06:51:25.274Z,14.10
2017-04-12T06:52:25.120Z,14.02
2017-04-12T06:53:25.457Z,13.35
2017-04-12T06:54:25.346Z,15.13
2017-04-12T06:55:26.865Z,14.57
2017-04-12T06:56:26.740Z,16.13
2017-04-12T06:57:26.624Z,14.23
2017-04-12T06:58:26.512Z,14.00
2017-04-12T06:59:26.406Z,18.10
2017-04-12T07:00:26.398Z,16.00
2017-04-12T07:01:26.349Z,16.42
2017-04-12T07:02:26.182Z,14.78
2017-04-12T07:03:26.155Z,14.67
2017-04-12T07:04:26.166Z,14.35
2017-04-12T07:05:26.578Z,14.20
2017-04-12T07:06:26.456Z,15.00
2017-04-12T07:07:26.297Z,15.38
2017-04-12T07:08:26.133Z,14.63
2017-04-12T07:09:26.314Z,14.28
2017-04-12T07:10:26.168Z,14.78
2017-04-12T07:11:26.076Z,15.37
2017-04-12T07:12:25.938Z,14.30
2017-04-12T07:13:26.651Z,14.37
2017-04-12T07:14:27.636Z,15.10
2017-04-12T07:15:27.482Z,14.25
2017-04-12T07:16:28.078Z,17.12
2017-04-12T07:17:27.935Z,16.13
2017-04-12T07:18:27.761Z,15.02
2017-04-12T07:19:27.639Z,15.35
2017-04-12T07:20:27.449Z,16.80
2017-04-12T07:21:28.077Z,14.88
2017-04-12T07:22:28.106Z,15.97
2017-04-12T07:23:27.985Z,14.65
2017-04-12T07:24:27.905Z,15.48
2017-04-12T07:25:28.437Z,15.38
2017-04-12T07:26:28.235Z,14.82
2017-04-12T07:27:28.131Z,16.03
2017-04-12T07:28:27.989Z,12.27
2017-04-12T07:29:27.903Z,13.78
2017-04-12T07:30:27.745Z,13.40
2017-04-12T07:31:27.579Z,13.43
2017-04-12T07:32:27.541Z,13.03
2017-04-12T07:33:27.423Z,13.22
2017-04-12T07:34:27.236Z,12.43
2017-04-12T07:35:27.209Z,14.30
2017-04-12T07:36:27.014Z,13.82
2017-04-12T07:37:26.896Z,14.37
2017-04-12T07:38:27.612Z,15.15
2017-04-12T07:39:27.421Z,13.13
2017-04-12T07:40:28.182Z,13.03
2017-04-12T07:41:29.219Z,13.20
2017-04-12T07:42:29.453Z,14.25
2017-04-12T07:43:29.303Z,14.50
2017-04-12T07:44:29.148Z,13.62
2017-04-12T07:45:29.114Z,12.40
2017-04-12T07:46:28.961Z,13.22
2017-04-12T07:47:28.805Z,14.70
2017-04-12T07:48:28.596Z,14.68
2017-04-12T07:49:29.179Z,13.33
2017-04-12T07:50:29.033Z,13.48
2017-04-12T07:51:29.017Z,11.58
2017-04-12T07:52:28.806Z,12.43
2017-04-12T07:53:28.642Z,12.42
2017-04-12T07:54:28.499Z,16.58
2017-04-12T07:55:28.337Z,14.28
2017-04-12T07:56:28.240Z,13.00
2017-04-12T07:57:28.132Z,13.37
2017-04-12T07:58:27.952Z,12.70
2017-04-12T07:59:27.771Z,12.77
2017-04-12T08:00:27.571Z,12.58
2017-04-12T08:01:27.428Z,13.83
2017-04-12T08:02:27.397Z,12.88
2017-04-12T08:03:27.259Z,13.50
2017-04-12T08:04:27.137Z,12.63
2017-04-12T08:05:27.022Z,13.82
2017-04-12T08:06:26.863Z,13.78
2017-04-12T08:07:26.641Z,14.90
2017-04-12T08:08:27.233Z,12.87
2017-04-12T08:09:27.179Z,13.82
2017-04-12T08:10:27.007Z,13.33
2017-04-12T08:11:27.783Z,13.55
2017-04-12T08:12:27.657Z,14.05
2017-04-12T08:13:27.783Z,12.72
2017-04-12T08:14:27.617Z,15.03
2017-04-12T08:15:27.447Z,14.20
2017-04-12T08:16:27.288Z,12.75
2017-04-12T08:17:27.135Z,11.55
2017-04-12T08:18:26.982Z,11.40
2017-04-12T08:19:26.825Z,13.92
2017-04-12T08:20:27.448Z,13.35
2017-04-12T08:21:27.454Z,12.83
2017-04-12T08:22:27.362Z,11.87
2017-04-12T08:23:27.193Z,11.32
2017-04-12T08:24:27.126Z,13.07
2017-04-12T08:25:26.995Z,13.68
2017-04-12T08:26:26.836Z,14.45
2017-04-12T08:27:26.722Z,11.88
2017-04-12T08:28:26.501Z,11.35
2017-04-12T08:29:26.300Z,12.88
2017-04-12T08:30:26.207Z,12.57
2017-04-12T08:31:26.044Z,13.17
2017-04-12T08:32:25.881Z,12.33
2017-04-12T08:33:25.772Z,11.50
2017-04-12T08:34:25.619Z,11.22
2017-04-12T08:35:25.491Z,10.80
2017-04-12T08:36:25.406Z,11.97
2017-04-12T08:37:25.246Z,11.65
2017-04-12T08:38:25.088Z,10.92
2017-04-12T08:39:24.938Z,10.73
2017-04-12T08:40:24.742Z,11.88
2017-04-12T08:41:24.634Z,11.52
2017-04-12T08:42:24.453Z,10.10
2017-04-12T08:43:24.399Z,10.48
2017-04-12T08:44:24.538Z,12.20
2017-04-12T08:45:24.420Z,11.95
2017-04-12T08:46:24.192Z,10.08
2017-04-12T08:47:24.059Z,11.57
2017-04-12T08:48:23.923Z,10.97
2017-04-12T08:49:23.788Z,11.35
2017-04-12T08:50:23.585Z,11.43
2017-04-12T08:51:23.439Z,11.47
2017-04-12T08:52:23.396Z,10.00
2017-04-12T08:53:23.231Z,8.62
2017-04-12T08:54:23.065Z,10.12
2017-04-12T08:55:22.889Z,10.00
2017-04-12T08:56:22.665Z,10.18
2017-04-12T08:57:22.489Z,8.82
2017-04-12T08:58:22.322Z,9.75
2017-04-12T08:59:22.250Z,9.08
2017-04-12T09:00:22.195Z,9.13
2017-04-12T09:01:22.052Z,9.63
2017-04-12T09:02:21.864Z,8.05
2017-04-12T09:03:21.690Z,10.58
2017-04-12T09:04:21.610Z,10.10
2017-04-12T09:05:21.496Z,9.68
2017-04-12T09:06:21.329Z,9.72
2017-04-12T09:07:21.186Z,8.73
2017-04-12T09:08:21.079Z,10.85
2017-04-12T09:09:20.938Z,9.58
2017-04-12T09:10:20.834Z,9.98
2017-04-12T09:11:20.631Z,9.58
2017-04-12T09:12:20.847Z,9.70
2017-04-12T09:13:20.853Z,9.50
2017-04-12T09:14:20.705Z,10.52
2017-04-12T09:15:20.766Z,10.02
2017-04-12T09:16:20.606Z,10.13
2017-04-12T09:17:20.487Z,8.43
2017-04-12T09:18:20.309Z,9.60
2017-04-12T09:19:20.168Z,8.10
2017-04-12T09:20:19.962Z,9.20
2017-04-12T09:21:19.825Z,9.47
2017-04-12T09:22:19.693Z,9.05
2017-04-12T09:23:19.637Z,9.22
2017-04-12T09:24:20.227Z,10.42
2017-04-12T09:25:20.070Z,8.63
2017-04-12T09:26:20.251Z,9.27
2017-04-12T09:27:20.046Z,8.53
2017-04-12T09:28:19.929Z,8.65
2017-04-12T09:29:19.771Z,8.55
2017-04-12T09:30:19.711Z,8.50
2017-04-12T09:31:19.606Z,9.40
2017-04-12T09:32:19.520Z,8.48
2017-04-12T09:33:19.305Z,8.38
2017-04-12T09:34:20.063Z,8.50
2017-04-12T09:35:20.100Z,8.23
2017-04-12T09:36:19.962Z,9.02
2017-04-12T09:37:19.891Z,8.03
2017-04-12T09:38:19.823Z,7.93
2017-04-12T09:39:19.652Z,8.30
2017-04-12T09:40:19.458Z,9.23
2017-04-12T09:41:19.300Z,8.37
2017-04-12T09:42:19.103Z,9.50
2017-04-12T09:43:19.000Z,8.48
2017-04-12T09:44:18.973Z,8.30
2017-04-12T09:45:18.883Z,7.38
2017-04-12T09:46:18.776Z,7.95
2017-04-12T09:47:18.888Z,8.38
2017-04-12T09:48:18.779Z,9.43
2017-04-12T09:49:18.594Z,6.40
2017-04-12T09:50:18.506Z,7.55
2017-04-12T09:51:18.342Z,8.47
2017-04-12T09:52:18.149Z,8.37
2017-04-12T09:53:17.869Z,8.95
2017-04-12T09:54:17.800Z,7.60
2017-04-12T09:55:17.612Z,6.67
2017-04-12T09:56:17.400Z,8.37
2017-04-12T09:57:17.284Z,8.18
2017-04-12T09:58:17.178Z,8.68
2017-04-12T09:59:16.989Z,8.13
2017-04-12T10:00:16.844Z,7.97
2017-04-12T10:01:16.751Z,8.02
2017-04-12T10:02:16.563Z,7.42
2017-04-12T10:03:16.451Z,8.13
2017-04-12T10:04:16.321Z,7.40
2017-04-12T10:05:16.137Z,8.52
2017-04-12T10:06:15.979Z,9.58
2017-04-12T10:07:15.777Z,7.25
2017-04-12T10:08:15.675Z,8.35
2017-04-12T10:09:15.568Z,8.63
2017-04-12T10:10:15.369Z,8.17
2017-04-12T10:11:15.307Z,9.20
2017-04-12T10:12:15.847Z,7.82
2017-04-12T10:13:15.770Z,7.52
2017-04-12T10:14:15.613Z,8.13
2017-04-12T10:15:15.409Z,7.17
2017-04-12T10:16:15.783Z,8.03
2017-04-12T10:17:16.366Z,7.20
2017-04-12T10:18:16.234Z,7.42
2017-04-12T10:19:16.074Z,7.80
2017-04-12T10:20:15.880Z,6.57
2017-04-12T10:21:15.749Z,7.12
2017-04-12T10:22:15.573Z,6.32
2017-04-12T10:23:15.375Z,7.05
2017-04-12T10:24:15.168Z,6.50
2017-04-12T10:25:14.984Z,6.07
2017-04-12T10:26:14.929Z,7.40
2017-04-12T10:27:14.766Z,6.93
2017-04-12T10:28:14.555Z,6.62
2017-04-12T10:29:14.415Z,6.80
2017-04-12T10:30:14.255Z,7.35
2017-04-12T10:31:14.107Z,6.05
2017-04-12T10:32:13.975Z,6.63
2017-04-12T10:33:13.929Z,6.82
2017-04-12T10:34:13.751Z,7.20
2017-04-12T10:35:13.657Z,6.27
2017-04-12T10:36:14.213Z,7.48
2017-04-12T10:37:14.015Z,8.03
2017-04-12T10:38:14.861Z,7.07
2017-04-12T10:39:14.806Z,6.80
2017-04-12T10:40:14.821Z,6.48
2017-04-12T10:41:14.623Z,6.20
2017-04-12T10:42:14.462Z,6.02
2017-04-12T10:43:14.351Z,7.52
2017-04-12T10:44:14.194Z,6.83
2017-04-12T10:45:14.082Z,6.52
2017-04-12T10:46:14.228Z,7.23
2017-04-12T10:47:14.139Z,6.68
2017-04-12T10:48:14.097Z,5.32
2017-04-12T10:49:14.057Z,6.62
2017-04-12T10:50:13.938Z,6.42
2017-04-12T10:51:14.030Z,7.25
2017-04-12T10:52:13.955Z,6.10
2017-04-12T10:53:13.855Z,5.62
2017-04-12T10:54:13.819Z,8.80
2017-04-12T10:55:13.803Z,6.67
2017-04-12T10:56:13.766Z,5.77
2017-04-12T10:57:13.764Z,5.72
2017-04-12T10:58:13.851Z,5.70
2017-04-12T10:59:13.749Z,6.33
2017-04-12T11:00:14.247Z,6.37
2017-04-12T11:01:14.116Z,6.33
2017-04-12T11:02:14.345Z,5.45
2017-04-12T11:03:14.359Z,5.60
2017-04-12T11:04:14.286Z,5.80
2017-04-12T11:05:14.179Z,6.47
2017-04-12T11:06:14.301Z,5.10
2017-04-12T11:07:14.127Z,5.70
2017-04-12T11:08:13.911Z,6.52
2017-04-12T11:09:14.627Z,6.75
2017-04-12T11:10:14.567Z,6.28
2017-04-12T11:11:14.492Z,5.43
2017-04-12T11:12:14.390Z,5.27
2017-04-12T11:13:14.344Z,7.07
2017-04-12T11:14:14.402Z,6.10
2017-04-12T11:15:14.386Z,7.02
2017-04-12T11:16:14.706Z,6.42
2017-04-12T11:17:14.651Z,5.08
2017-04-12T11:18:15.502Z,5.33
2017-04-12T11:19:15.361Z,6.33
2017-04-12T11:20:15.405Z,5.23
2017-04-12T11:21:15.411Z,5.28
2017-04-12T11:22:15.331Z,4.92
2017-04-12T11:23:15.899Z,5.45
2017-04-12T11:24:15.745Z,5.18
2017-04-12T11:25:15.680Z,4.50
2017-04-12T11:26:15.609Z,5.35
2017-04-12T11:27:15.515Z,5.62
2017-04-12T11:28:15.363Z,4.72
2017-04-12T11:29:15.313Z,5.35
2017-04-12T11:30:15.917Z,4.40
2017-04-12T11:31:15.974Z,5.58
2017-04-12T11:32:15.972Z,5.10
2017-04-12T11:33:15.969Z,6.23
2017-04-12T11:34:15.836Z,4.93
2017-04-12T11:35:15.820Z,6.00
2017-04-12T11:36:16.953Z,5.08
2017-04-12T11:37:16.844Z,6.00
2017-04-12T11:38:16.806Z,6.12
2017-04-12T11:39:16.781Z,5.50
2017-04-12T11:40:16.687Z,6.60
2017-04-12T11:41:16.493Z,6.35
2017-04-12T11:42:16.311Z,5.83
2017-04-12T11:43:16.221Z,6.47
2017-04-12T11:44:16.124Z,6.00
2017-04-12T11:45:16.195Z,5.72
2017-04-12T11:46:16.007Z,5.87
2017-04-12T11:47:15.850Z,6.38
2017-04-12T11:48:15.706Z,7.05
2017-04-12T11:49:15.648Z,6.03
2017-04-12T11:50:15.620Z,6.18
2017-04-12T11:51:16.364Z,6.70
2017-04-12T11:52:16.233Z,6.55
2017-04-12T11:53:16.130Z,6.88
2017-04-12T11:54:16.018Z,5.97
2017-04-12T11:55:15.878Z,6.10
2017-04-12T11:56:15.800Z,5.83
2017-04-12T11:57:16.108Z,6.53
2017-04-12T11:58:15.986Z,7.47
2017-04-12T11:59:15.857Z,7.20
2017-04-12T12:00:15.832Z,6.43
2017-04-12T12:01:15.755Z,8.35
2017-04-12T12:02:15.544Z,7.22
2017-04-12T12:03:15.500Z,6.78
2017-04-12T12:04:15.318Z,7.92
2017-04-12T12:05:15.164Z,7.12
2017-04-12T12:06:15.008Z,8.77
2017-04-12T12:07:14.867Z,6.82
2017-04-12T12:08:14.742Z,7.68
2017-04-12T12:09:16.372Z,10.88
2017-04-12T12:10:16.237Z,7.87
2017-04-12T12:11:16.130Z,9.02
2017-04-12T12:12:16.011Z,8.18
2017-04-12T12:13:15.825Z,7.93
2017-04-12T12:14:16.609Z,7.90
2017-04-12T12:15:16.474Z,9.03
2017-04-12T12:16:16.305Z,7.97
2017-04-12T12:17:16.196Z,8.73
2017-04-12T12:18:16.001Z,8.67
2017-04-12T12:19:15.823Z,7.93
2017-04-12T12:20:15.737Z,9.50
2017-04-12T12:21:15.657Z,9.62
2017-04-12T12:22:15.599Z,8.53
2017-04-12T12:23:15.693Z,9.20
2017-04-12T12:24:16.774Z,9.50
2017-04-12T12:25:16.710Z,9.07
2017-04-12T12:26:16.656Z,9.28
2017-04-12T12:27:16.634Z,9.67
2017-04-12T12:28:17.464Z,10.48
2017-04-12T12:29:17.368Z,9.87
2017-04-12T12:30:17.273Z,7.20
2017-04-12T12:31:17.165Z,8.68
2017-04-12T12:32:17.136Z,8.68
2017-04-12T12:33:17.041Z,7.50
2017-04-12T12:34:17.213Z,8.30
2017-04-12T12:35:17.158Z,7.20
2017-04-12T12:36:17.214Z,7.92
2017-04-12T12:37:17.906Z,8.70
2017-04-12T12:38:17.820Z,8.80
2017-04-12T12:39:17.803Z,8.82
2017-04-12T12:40:17.728Z,7.93
2017-04-12T12:41:17.590Z,8.25
2017-04-12T12:42:17.721Z,7.28
2017-04-12T12:43:17.708Z,8.85
2017-04-12T12:44:19.458Z,10.35
2017-04-12T12:45:19.539Z,8.62
2017-04-12T12:46:19.465Z,7.48
2017-04-12T12:47:19.405Z,7.38
2017-04-12T12:48:19.540Z,8.80
2017-04-12T12:49:20.115Z,9.17
2017-04-12T12:50:20.022Z,8.45
2017-04-12T12:51:20.042Z,8.82
2017-04-12T12:52:20.777Z,10.13
2017-04-12T12:53:21.895Z,9.98
2017-04-12T12:54:21.824Z,8.75
2017-04-12T12:55:21.827Z,9.00
2017-04-12T12:56:21.950Z,7.92
2017-04-12T12:57:21.976Z,9.92
2017-04-12T12:58:21.856Z,9.12
2017-04-12T12:59:22.503Z,8.80
2017-04-12T13:00:23.298Z,9.62
2017-04-12T13:01:23.259Z,9.27
2017-04-12T13:02:23.379Z,9.80
2017-04-12T13:03:23.241Z,8.80
2017-04-12T13:04:23.269Z,9.25
2017-04-12T13:05:23.279Z,9.65
2017-04-12T13:06:24.849Z,9.65
2017-04-12T13:07:25.070Z,10.53
2017-04-12T13:08:24.900Z,8.65
2017-04-12T13:09:24.869Z,10.13
2017-04-12T13:10:24.893Z,9.13
2017-04-12T13:11:24.826Z,10.10
2017-04-12T13:12:25.278Z,8.42
2017-04-12T13:13:25.681Z,9.72
2017-04-12T13:14:25.799Z,10.35